Time;durP1;ratioP1;P1;durP2;ratioP2;P2;SDS_P1;SDS_P2;PMS_P1;PMS_P2;Temp;Humidity;BMP_temperature;BMP_pressure;BME280_temperature;BME280_humidity;BME280_pressure;Samples;Min_cycle;Max_cycle;Signal;HPM_P1;HPM_P2
2022/05/08 00:02:22;;;;;;;7.93;2.40;;;8.20;99.90;;;;;;5075670;28;20052;-77
2022/05/08 00:04:51;;;;;;;11.82;2.80;;;8.10;99.90;;;;;;5076446;28;20072;-77
2022/05/08 00:07:17;;;;;;;11.30;3.33;;;8.10;99.90;;;;;;5075055;28;20131;-77
2022/05/08 00:09:44;;;;;;;10.32;2.58;;;8.10;99.90;;;;;;5060389;28;20079;-76
2022/05/08 00:12:13;;;;;;;13.50;2.90;;;8.10;99.90;;;;;;5075495;28;20170;-77
2022/05/08 00:14:43;;;;;;;9.93;2.30;;;8.10;99.90;;;;;;5076042;28;20070;-76
2022/05/08 00:17:11;;;;;;;8.32;3.67;;;8.10;99.90;;;;;;5077705;28;20044;-76
2022/05/08 00:19:43;;;;;;;10.10;3.00;;;8.10;99.90;;;;;;5075216;28;20139;-76
2022/05/08 00:22:12;;;;;;;9.43;2.92;;;8.10;99.90;;;;;;5077117;28;20052;-77
2022/05/08 00:24:38;;;;;;;10.98;3.08;;;8.20;99.90;;;;;;5058384;28;20044;-76
2022/05/08 00:27:04;;;;;;;8.98;2.83;;;8.30;99.90;;;;;;5043024;28;20045;-75
2022/05/08 00:29:30;;;;;;;9.88;2.92;;;8.30;99.90;;;;;;5075520;28;20067;-76
2022/05/08 00:31:56;;;;;;;8.25;2.45;;;8.30;99.90;;;;;;5075287;28;20052;-76
2022/05/08 00:34:22;;;;;;;8.60;2.60;;;8.30;99.90;;;;;;5076537;28;20069;-76
2022/05/08 00:36:48;;;;;;;12.60;3.03;;;8.40;99.90;;;;;;5058316;28;20040;-76
2022/05/08 00:39:16;;;;;;;7.93;2.90;;;8.40;99.90;;;;;;5076537;28;20106;-76
2022/05/08 00:41:42;;;;;;;11.57;3.40;;;8.40;99.90;;;;;;5075550;28;20126;-77
2022/05/08 00:44:08;;;;;;;10.65;3.00;;;8.40;99.90;;;;;;5059746;28;20048;-77
2022/05/08 00:46:33;;;;;;;10.73;2.65;;;8.40;99.90;;;;;;5059285;28;20051;-77
2022/05/08 00:48:59;;;;;;;10.95;3.15;;;8.50;99.90;;;;;;5042360;28;20124;-76
2022/05/08 00:51:27;;;;;;;6.28;2.83;;;8.50;99.90;;;;;;5077404;28;20055;-76
2022/05/08 00:53:56;;;;;;;13.65;3.42;;;8.50;99.90;;;;;;5076229;28;20048;-76
2022/05/08 00:56:22;;;;;;;8.35;2.63;;;8.50;99.90;;;;;;5077819;28;20048;-77
2022/05/08 00:58:50;;;;;;;8.18;2.90;;;8.50;99.90;;;;;;5075966;28;20439;-75
2022/05/08 01:01:17;;;;;;;9.80;2.83;;;8.50;99.90;;;;;;5077281;28;20051;-77
2022/05/08 01:03:43;;;;;;;14.05;3.30;;;8.50;99.90;;;;;;5076249;28;20037;-76
2022/05/08 01:06:14;;;;;;;10.13;3.25;;;8.40;99.90;;;;;;5059655;28;20083;-77
2022/05/08 01:08:42;;;;;;;9.40;3.00;;;8.40;99.90;;;;;;5076866;28;20452;-76
2022/05/08 01:11:10;;;;;;;13.00;3.40;;;8.40;99.90;;;;;;5074743;28;20052;-77
2022/05/08 01:13:36;;;;;;;10.93;3.28;;;8.40;99.90;;;;;;5059830;28;20102;-77
2022/05/08 01:16:10;;;;;;;11.05;3.67;;;8.30;99.90;;;;;;5058243;28;20047;-77
2022/05/08 01:18:35;;;;;;;10.70;3.53;;;8.20;99.90;;;;;;5076588;28;20049;-77
2022/05/08 01:21:01;;;;;;;10.13;3.50;;;8.20;99.90;;;;;;5058706;28;20101;-77
2022/05/08 01:23:27;;;;;;;12.35;3.15;;;8.20;99.90;;;;;;5075777;28;20626;-77
2022/05/08 01:25:57;;;;;;;12.93;3.45;;;8.20;99.90;;;;;;5060704;28;20056;-77
2022/05/08 01:28:24;;;;;;;8.75;3.33;;;8.20;99.90;;;;;;5078474;28;20044;-77
2022/05/08 01:30:52;;;;;;;9.40;3.13;;;8.10;99.90;;;;;;5063876;28;20048;-77
2022/05/08 01:33:18;;;;;;;12.50;3.78;;;8.10;99.90;;;;;;5078475;28;20147;-77
2022/05/08 01:35:45;;;;;;;11.45;3.28;;;8.10;99.90;;;;;;5079653;28;20048;-77
2022/05/08 01:38:13;;;;;;;12.63;3.50;;;8.10;99.90;;;;;;5062392;28;20052;-77
2022/05/08 01:40:39;;;;;;;10.07;3.72;;;8.10;99.90;;;;;;5078892;28;20068;-78
2022/05/08 01:43:05;;;;;;;7.43;3.15;;;8.00;99.90;;;;;;5079710;28;20050;-77
2022/05/08 01:45:32;;;;;;;11.27;3.88;;;8.00;99.90;;;;;;5078345;28;20053;-77
2022/05/08 01:50:42;;;;;;;9.10;3.08;;;7.90;99.90;;;;;;5064424;28;20044;-77
2022/05/08 01:53:08;;;;;;;6.95;3.20;;;7.80;99.90;;;;;;5062412;28;20119;-77
2022/05/08 01:55:35;;;;;;;10.90;2.92;;;7.80;99.90;;;;;;5079140;28;20049;-78
2022/05/08 01:58:01;;;;;;;10.40;3.13;;;7.70;99.90;;;;;;5077774;28;20075;-78
2022/05/08 02:00:29;;;;;;;9.45;3.15;;;7.70;99.90;;;;;;5062929;28;20040;-78
2022/05/08 02:02:58;;;;;;;8.52;3.63;;;7.70;99.90;;;;;;5077887;28;20056;-77
2022/05/08 02:05:24;;;;;;;9.50;3.03;;;7.70;99.90;;;;;;5079241;28;20033;-78
2022/05/08 02:07:49;;;;;;;9.13;3.10;;;7.70;99.90;;;;;;5078128;28;20049;-78
2022/05/08 02:10:17;;;;;;;10.43;3.97;;;7.70;99.90;;;;;;5078911;28;20051;-78
2022/05/08 02:12:44;;;;;;;8.70;3.95;;;7.60;99.90;;;;;;5078436;28;20101;-78
2022/05/08 02:15:11;;;;;;;11.70;3.25;;;7.60;99.90;;;;;;5077932;28;20093;-78
2022/05/08 02:17:38;;;;;;;6.15;3.03;;;7.60;99.90;;;;;;5062749;28;20409;-78
2022/05/08 02:20:06;;;;;;;9.32;3.45;;;7.50;99.90;;;;;;5060523;28;20057;-78
2022/05/08 02:22:39;;;;;;;10.30;3.05;;;7.40;99.90;;;;;;5078596;28;20562;-78
2022/05/08 02:25:07;;;;;;;10.02;3.33;;;7.40;99.90;;;;;;5061187;28;20088;-78
2022/05/08 02:27:41;;;;;;;10.13;3.22;;;7.30;99.90;;;;;;5077788;28;20062;-78
2022/05/08 02:30:09;;;;;;;10.50;2.92;;;7.30;99.90;;;;;;5061917;28;20037;-78
2022/05/08 02:32:36;;;;;;;15.10;3.65;;;7.30;99.90;;;;;;5077323;28;20082;-78
2022/05/08 02:35:03;;;;;;;9.80;3.40;;;7.30;99.90;;;;;;5061353;28;20044;-78
2022/05/08 02:37:28;;;;;;;7.82;2.67;;;7.30;99.90;;;;;;5060446;28;20045;-79
2022/05/08 02:39:54;;;;;;;6.32;2.70;;;7.30;99.90;;;;;;5078312;28;20044;-79
2022/05/08 02:42:20;;;;;;;7.32;2.65;;;7.10;99.90;;;;;;5077687;28;20052;-80
2022/05/08 02:44:46;;;;;;;9.00;3.55;;;6.70;99.90;;;;;;5077085;28;20040;-79
2022/05/08 02:47:12;;;;;;;6.97;2.95;;;6.20;99.90;;;;;;5061989;28;20045;-79
2022/05/08 02:49:37;;;;;;;10.38;3.70;;;6.00;99.90;;;;;;5060112;28;20074;-79
2022/05/08 02:52:03;;;;;;;9.07;3.60;;;5.80;99.90;;;;;;5078641;28;20045;-79
2022/05/08 02:54:29;;;;;;;8.68;3.13;;;5.60;99.90;;;;;;5076479;28;20179;-79
2022/05/08 02:59:39;;;;;;;10.75;3.05;;;5.50;99.90;;;;;;5077668;28;20052;-79
2022/05/08 03:02:06;;;;;;;10.07;3.38;;;5.50;99.90;;;;;;5060162;28;20037;-79
2022/05/08 03:04:31;;;;;;;10.52;2.92;;;5.40;99.90;;;;;;5078108;28;20049;-79
2022/05/08 03:06:57;;;;;;;7.50;3.40;;;5.30;99.90;;;;;;5076862;28;20044;-79
2022/05/08 03:09:23;;;;;;;9.43;2.67;;;5.10;99.90;;;;;;5061714;28;20044;-79
2022/05/08 03:11:48;;;;;;;6.32;3.03;;;5.00;99.90;;;;;;5043122;28;20052;-79
2022/05/08 03:14:14;;;;;;;11.10;3.28;;;5.00;99.90;;;;;;5077404;28;20051;-79
2022/05/08 03:16:41;;;;;;;10.55;3.38;;;5.10;99.90;;;;;;5060789;28;20044;-79
2022/05/08 03:19:06;;;;;;;9.30;3.22;;;5.10;99.90;;;;;;5076946;28;20120;-78
2022/05/08 03:21:34;;;;;;;7.63;3.03;;;5.10;99.90;;;;;;5061540;28;20524;-79
2022/05/08 03:24:00;;;;;;;9.13;3.10;;;5.10;99.90;;;;;;5076279;28;20052;-79
2022/05/08 03:26:28;;;;;;;10.02;2.95;;;5.10;99.90;;;;;;5061358;28;20040;-79
2022/05/08 03:28:54;;;;;;;11.93;3.03;;;5.10;99.90;;;;;;5059126;28;20070;-79
2022/05/08 03:31:21;;;;;;;10.43;3.78;;;5.20;99.90;;;;;;5077235;28;20040;-79
2022/05/08 03:33:47;;;;;;;12.07;3.75;;;4.90;99.90;;;;;;5076657;28;20528;-79
2022/05/08 03:36:12;;;;;;;11.52;2.88;;;5.30;99.90;;;;;;5060178;28;20090;-79
2022/05/08 03:38:46;;;;;;;7.13;2.90;;;4.80;99.90;;;;;;5040966;28;20100;-79
2022/05/08 03:41:15;;;;;;;7.65;2.70;;;4.80;99.90;;;;;;5041960;28;20029;-79
2022/05/08 03:43:47;;;;;;;10.18;2.97;;;4.70;99.90;;;;;;5075527;28;20048;-78
2022/05/08 03:46:14;;;;;;;11.23;2.78;;;4.80;99.90;;;;;;5073677;28;20104;-79
2022/05/08 03:48:40;;;;;;;7.72;3.08;;;4.70;99.90;;;;;;5074341;28;20048;-79
2022/05/08 03:51:05;;;;;;;6.72;2.90;;;4.70;99.90;;;;;;5057768;28;20042;-79
2022/05/08 03:53:31;;;;;;;6.80;2.65;;;4.70;99.90;;;;;;5059372;28;20116;-79
2022/05/08 03:55:57;;;;;;;7.85;2.90;;;4.70;99.90;;;;;;5060872;28;20837;-79
2022/05/08 03:58:23;;;;;;;8.43;3.58;;;4.70;99.90;;;;;;5059647;28;20048;-79
2022/05/08 04:00:49;;;;;;;6.38;3.35;;;4.70;99.90;;;;;;5077980;28;20587;-79
2022/05/08 04:03:15;;;;;;;5.13;2.50;;;4.60;99.90;;;;;;5058582;28;20051;-79
2022/05/08 04:05:40;;;;;;;11.18;3.60;;;4.50;99.90;;;;;;5060368;28;20519;-79
2022/05/08 04:08:07;;;;;;;10.00;3.33;;;4.50;99.90;;;;;;5075773;28;20040;-79
2022/05/08 04:10:33;;;;;;;8.75;2.95;;;4.60;99.90;;;;;;5076179;28;20048;-78
2022/05/08 04:12:59;;;;;;;10.80;2.95;;;4.60;99.90;;;;;;5040375;28;20045;-79
2022/05/08 04:18:09;;;;;;;13.02;4.22;;;4.60;99.90;;;;;;5063126;28;20044;-79
2022/05/08 04:20:36;;;;;;;7.63;2.90;;;4.60;99.90;;;;;;5075216;28;20053;-79
2022/05/08 04:25:46;;;;;;;7.53;3.22;;;4.60;99.90;;;;;;5076893;28;20147;-79
2022/05/08 04:28:11;;;;;;;10.98;3.88;;;4.70;99.90;;;;;;5041206;28;20075;-79
2022/05/08 04:30:38;;;;;;;10.27;3.42;;;4.70;99.90;;;;;;5076884;28;20587;-78
2022/05/08 04:33:04;;;;;;;11.38;3.80;;;4.70;99.90;;;;;;5076128;28;20091;-78
2022/05/08 04:35:30;;;;;;;9.82;3.05;;;4.80;99.90;;;;;;5077881;28;20044;-78
2022/05/08 04:37:56;;;;;;;10.80;3.33;;;4.90;99.90;;;;;;5060135;28;20060;-79
2022/05/08 04:40:24;;;;;;;12.18;3.70;;;5.00;99.90;;;;;;5077632;28;20084;-78
2022/05/08 04:42:50;;;;;;;12.32;4.32;;;5.10;99.90;;;;;;5061425;28;20075;-78
2022/05/08 04:45:15;;;;;;;11.25;3.25;;;5.20;99.90;;;;;;5059432;28;20044;-78
2022/05/08 04:47:41;;;;;;;13.32;4.35;;;5.30;99.90;;;;;;5060282;28;20052;-79
2022/05/08 04:50:07;;;;;;;12.75;3.83;;;5.40;99.90;;;;;;5058515;28;20417;-80
2022/05/08 04:52:33;;;;;;;12.98;4.18;;;5.40;99.90;;;;;;5040176;28;20041;-81
2022/05/08 04:55:02;;;;;;;10.05;3.83;;;5.60;99.90;;;;;;5071762;28;20056;-80
2022/05/08 04:57:30;;;;;;;9.60;3.95;;;5.60;99.90;;;;;;5043185;28;20044;-80
2022/05/08 04:59:56;;;;;;;11.68;3.72;;;5.70;99.90;;;;;;5077184;28;20112;-79
2022/05/08 05:02:22;;;;;;;11.93;3.72;;;5.70;99.90;;;;;;5062816;28;20086;-79
2022/05/08 05:04:47;;;;;;;7.68;3.65;;;5.80;99.90;;;;;;5063833;28;20512;-79
2022/05/08 05:07:13;;;;;;;9.40;3.67;;;6.00;99.90;;;;;;5062298;28;20037;-80
2022/05/08 05:09:39;;;;;;;10.57;3.78;;;6.50;99.90;;;;;;5080384;28;20079;-79
2022/05/08 05:12:05;;;;;;;8.95;3.88;;;6.20;99.90;;;;;;5062473;28;20087;-79
2022/05/08 05:14:31;;;;;;;10.68;4.47;;;6.40;99.90;;;;;;5062783;28;20052;-79
2022/05/08 05:16:58;;;;;;;11.73;4.35;;;6.50;99.90;;;;;;5063521;28;20048;-79
2022/05/08 05:19:23;;;;;;;10.23;3.55;;;6.70;99.90;;;;;;5078943;28;20084;-79
2022/05/08 05:21:49;;;;;;;8.40;3.50;;;6.90;99.90;;;;;;5063488;28;20063;-78
2022/05/08 05:24:15;;;;;;;10.00;3.95;;;7.10;99.90;;;;;;5078836;28;20599;-78
2022/05/08 05:26:41;;;;;;;11.05;3.75;;;7.20;99.90;;;;;;5063477;28;20052;-78
2022/05/08 05:29:08;;;;;;;9.18;3.75;;;7.40;99.90;;;;;;5061510;28;20504;-77
2022/05/08 05:31:34;;;;;;;8.20;3.88;;;7.60;99.90;;;;;;5079718;28;20121;-78
2022/05/08 05:33:59;;;;;;;7.45;3.45;;;7.70;99.90;;;;;;5062579;28;20571;-78
2022/05/08 05:36:25;;;;;;;10.02;3.85;;;7.80;99.90;;;;;;5078806;28;20093;-76
2022/05/08 05:38:51;;;;;;;8.38;3.83;;;7.90;99.90;;;;;;5063719;28;20045;-78
2022/05/08 05:41:16;;;;;;;8.60;3.33;;;7.90;99.90;;;;;;5061683;28;20472;-78
2022/05/08 05:43:42;;;;;;;9.93;3.17;;;8.10;99.90;;;;;;5079653;28;20052;-79
2022/05/08 05:48:52;;;;;;;12.15;3.25;;;8.30;99.90;;;;;;5065021;28;20048;-77
2022/05/08 05:51:17;;;;;;;8.65;3.75;;;8.40;99.90;;;;;;5062685;28;20058;-78
2022/05/08 05:53:43;;;;;;;10.57;3.63;;;8.50;99.90;;;;;;5061608;28;20049;-77
2022/05/08 05:56:09;;;;;;;11.70;2.92;;;8.60;99.90;;;;;;5079613;28;20043;-77
2022/05/08 05:58:35;;;;;;;8.10;2.90;;;8.70;99.90;;;;;;5060919;28;20098;-77
2022/05/08 06:01:01;;;;;;;6.32;3.15;;;8.80;99.90;;;;;;5079359;28;20051;-78
2022/05/08 06:03:27;;;;;;;9.98;2.78;;;9.00;99.90;;;;;;5061416;28;20040;-78
2022/05/08 06:05:53;;;;;;;9.43;2.78;;;9.10;99.90;;;;;;5080236;28;20055;-76
2022/05/08 06:08:19;;;;;;;8.88;3.72;;;9.10;99.90;;;;;;5062504;28;20044;-75
2022/05/08 06:10:44;;;;;;;7.82;2.70;;;9.20;99.90;;;;;;5078187;28;20042;-76
2022/05/08 06:13:10;;;;;;;6.43;2.90;;;9.40;99.90;;;;;;5078325;28;20161;-75
2022/05/08 06:15:36;;;;;;;7.63;2.70;;;9.50;99.90;;;;;;5077835;28;20048;-75
2022/05/08 06:18:02;;;;;;;7.78;2.58;;;9.60;99.90;;;;;;5062231;28;20084;-76
2022/05/08 06:20:28;;;;;;;8.95;2.65;;;9.70;99.90;;;;;;5077625;28;20071;-75
2022/05/08 06:22:56;;;;;;;7.32;2.38;;;9.80;99.90;;;;;;5058839;28;20662;-77
2022/05/08 06:25:22;;;;;;;5.35;2.55;;;9.90;99.90;;;;;;5068830;28;20041;-75
2022/05/08 06:27:48;;;;;;;8.05;2.67;;;10.00;99.90;;;;;;5060485;28;20536;-77
2022/05/08 06:30:14;;;;;;;9.45;2.83;;;10.10;99.90;;;;;;5062507;28;20048;-76
2022/05/08 06:32:39;;;;;;;8.40;2.53;;;10.10;99.90;;;;;;5061402;28;20045;-76
2022/05/08 06:35:05;;;;;;;6.50;2.60;;;10.10;99.90;;;;;;5062344;28;20048;-79
2022/05/08 06:37:31;;;;;;;6.80;2.40;;;10.20;99.90;;;;;;5077140;28;20141;-76
2022/05/08 06:39:56;;;;;;;7.90;2.30;;;10.30;99.90;;;;;;5078818;28;20070;-79
2022/05/08 06:42:22;;;;;;;6.00;2.20;;;10.30;99.90;;;;;;5077981;28;20049;-80
2022/05/08 06:44:48;;;;;;;7.57;3.00;;;10.30;99.90;;;;;;5077519;28;20159;-77
2022/05/08 06:47:14;;;;;;;6.80;2.20;;;10.30;99.90;;;;;;5078506;28;20048;-77
2022/05/08 06:49:39;;;;;;;8.85;2.50;;;10.30;99.90;;;;;;5076812;28;20068;-76
2022/05/08 06:52:05;;;;;;;6.00;2.00;;;10.40;99.90;;;;;;5078699;28;20052;-77
2022/05/08 06:54:31;;;;;;;5.55;2.15;;;10.50;99.90;;;;;;5073972;28;20132;-75
2022/05/08 06:56:59;;;;;;;7.35;2.08;;;10.60;99.90;;;;;;5073312;28;20099;-76
2022/05/08 07:02:11;;;;;;;6.22;2.28;;;10.70;99.90;;;;;;5072149;28;20076;-76
2022/05/08 07:04:38;;;;;;;6.63;1.95;;;10.90;99.90;;;;;;5059130;28;20055;-75
2022/05/08 07:07:04;;;;;;;5.75;1.50;;;11.10;99.90;;;;;;5030059;28;20535;-77
2022/05/08 07:09:30;;;;;;;11.57;2.20;;;11.20;99.90;;;;;;5060140;28;20044;-75
2022/05/08 07:11:56;;;;;;;4.55;1.52;;;11.20;99.90;;;;;;5075861;28;20063;-78
2022/05/08 07:14:21;;;;;;;6.65;1.92;;;11.20;99.90;;;;;;5059807;28;20044;-75
2022/05/08 07:16:47;;;;;;;6.43;1.77;;;11.20;99.90;;;;;;5059966;28;20056;-77
2022/05/08 07:19:13;;;;;;;4.25;1.70;;;11.20;99.90;;;;;;5059185;28;20052;-76
2022/05/08 07:21:39;;;;;;;5.25;1.80;;;11.20;99.90;;;;;;5083196;28;20085;-74
2022/05/08 07:24:05;;;;;;;7.07;1.80;;;11.10;99.90;;;;;;5075261;28;20056;-77
2022/05/08 07:26:31;;;;;;;6.55;1.65;;;11.20;99.90;;;;;;5076286;28;20049;-75
2022/05/08 07:28:57;;;;;;;4.22;1.60;;;11.30;99.90;;;;;;5075178;28;20078;-76
2022/05/08 07:31:24;;;;;;;8.18;2.17;;;11.40;99.90;;;;;;5049688;28;20131;-73
2022/05/08 07:36:12;;;;;;;6.22;2.45;;;11.50;99.90;;;;;;5051088;28;20055;-76
2022/05/08 07:36:36;;;;;;;6.88;2.22;;;11.50;99.90;;;;;;5090299;28;20108;-75
2022/05/08 07:39:02;;;;;;;5.85;1.90;;;11.50;99.90;;;;;;5098224;28;20075;-78
2022/05/08 07:41:29;;;;;;;6.43;2.00;;;11.40;99.90;;;;;;5093842;28;20055;-77
2022/05/08 07:43:54;;;;;;;3.88;2.42;;;11.50;99.90;;;;;;5077479;28;20044;-77
2022/05/08 07:46:20;;;;;;;4.72;2.00;;;11.70;99.90;;;;;;5080602;28;20083;-76
2022/05/08 07:48:46;;;;;;;6.57;2.08;;;11.70;99.90;;;;;;5062372;28;20099;-76
2022/05/08 07:51:12;;;;;;;7.55;1.80;;;11.80;99.90;;;;;;5061137;28;20041;-75
2022/05/08 07:53:37;;;;;;;5.18;1.92;;;11.70;99.90;;;;;;5059222;28;20139;-79
2022/05/08 07:56:03;;;;;;;5.13;2.53;;;11.70;99.90;;;;;;5076716;28;20059;-77
2022/05/08 07:58:32;;;;;;;4.30;1.80;;;11.80;99.90;;;;;;5074453;28;20036;-77
2022/05/08 08:00:59;;;;;;;8.30;2.42;;;11.90;99.90;;;;;;5077004;28;20578;-77
2022/05/08 08:03:27;;;;;;;5.63;1.83;;;11.90;99.90;;;;;;5071568;28;20043;-75
2022/05/08 08:05:54;;;;;;;5.72;1.90;;;12.00;99.90;;;;;;5070128;28;20127;-78
2022/05/08 08:08:25;;;;;;;5.00;1.67;;;12.10;99.90;;;;;;5084225;28;20059;-74
2022/05/08 08:10:52;;;;;;;4.72;1.40;;;12.10;99.90;;;;;;5080384;28;20491;-76
2022/05/08 08:13:22;;;;;;;5.53;1.67;;;12.40;99.90;;;;;;5069434;28;20059;-76
2022/05/08 08:15:49;;;;;;;4.97;1.50;;;12.70;99.90;;;;;;5083321;28;20047;-75
2022/05/08 08:18:16;;;;;;;4.63;1.70;;;12.90;99.90;;;;;;5072078;28;20054;-75
2022/05/08 08:20:42;;;;;;;6.70;2.00;;;13.20;99.90;;;;;;5089699;28;20060;-76
2022/05/08 08:23:09;;;;;;;7.70;1.67;;;13.40;99.90;;;;;;5061757;28;20061;-75
2022/05/08 08:25:35;;;;;;;4.75;1.60;;;13.60;99.90;;;;;;5071242;28;20041;-76
2022/05/08 08:28:01;;;;;;;6.13;1.70;;;13.70;99.90;;;;;;5074813;28;20459;-76
2022/05/08 08:30:28;;;;;;;6.57;2.03;;;13.40;99.90;;;;;;5079030;28;20076;-75
2022/05/08 08:32:54;;;;;;;5.90;2.10;;;13.10;99.90;;;;;;5074141;28;20117;-76
2022/05/08 08:35:20;;;;;;;8.18;1.95;;;12.90;99.90;;;;;;5091644;28;20040;-75
2022/05/08 08:37:45;;;;;;;8.77;1.90;;;12.80;99.90;;;;;;5081012;28;20052;-77
2022/05/08 08:40:12;;;;;;;5.63;1.88;;;12.60;99.90;;;;;;5089979;28;20036;-76
2022/05/08 08:42:43;;;;;;;5.50;1.88;;;12.50;99.90;;;;;;5087608;28;20086;-76
2022/05/08 08:48:03;;;;;;;9.25;2.10;;;12.40;99.90;;;;;;5086502;28;20083;-77
2022/05/08 08:50:29;;;;;;;6.38;2.10;;;12.40;99.90;;;;;;5084080;28;20048;-78
2022/05/08 08:52:59;;;;;;;6.57;1.88;;;12.40;99.90;;;;;;5068020;28;20075;-78
2022/05/08 08:55:25;;;;;;;5.57;1.70;;;12.40;99.90;;;;;;5079547;28;20042;-79
2022/05/08 08:57:51;;;;;;;7.07;2.15;;;12.40;99.90;;;;;;5080438;28;20051;-77
2022/05/08 09:00:18;;;;;;;3.30;1.50;;;12.50;99.90;;;;;;5088508;28;20055;-77
2022/05/08 09:02:45;;;;;;;7.63;2.00;;;12.50;99.90;;;;;;5083088;28;20044;-75
2022/05/08 09:05:11;;;;;;;7.22;1.90;;;12.70;99.90;;;;;;5078179;28;20039;-76
2022/05/08 09:07:46;;;;;;;8.23;2.30;;;12.90;99.90;;;;;;5074601;28;20052;-76
2022/05/08 09:10:27;;;;;;;4.88;2.25;;;13.20;99.90;;;;;;5079804;28;20056;-78
2022/05/08 09:12:53;;;;;;;9.75;2.67;;;13.50;99.90;;;;;;5093216;28;20059;-75
2022/05/08 09:15:20;;;;;;;5.95;1.90;;;13.60;99.90;;;;;;5068382;28;20036;-75
2022/05/08 09:17:47;;;;;;;7.65;1.80;;;13.50;99.90;;;;;;5070472;28;20121;-78
2022/05/08 09:20:29;;;;;;;6.40;1.83;;;13.50;99.90;;;;;;5090449;28;20116;-76
2022/05/08 09:23:04;;;;;;;7.05;1.88;;;13.70;99.90;;;;;;5079531;28;20059;-80
2022/05/08 09:25:51;;;;;;;6.65;2.00;;;13.80;99.90;;;;;;5082309;28;20059;-79
2022/05/08 09:28:27;;;;;;;6.82;1.73;;;13.80;99.90;;;;;;5082866;28;20476;-76
2022/05/08 09:30:57;;;;;;;9.10;2.00;;;13.80;99.90;;;;;;5045684;28;20468;-77
2022/05/08 09:33:25;;;;;;;4.18;1.77;;;14.00;99.90;;;;;;5078671;28;20040;-75
2022/05/08 09:35:51;;;;;;;4.35;2.08;;;14.10;99.90;;;;;;5093490;28;20052;-76
2022/05/08 09:38:16;;;;;;;5.30;2.03;;;14.00;99.90;;;;;;5072228;28;20059;-78
2022/05/08 09:40:42;;;;;;;4.50;1.90;;;14.00;99.90;;;;;;5090364;28;20056;-79
2022/05/08 09:43:30;;;;;;;6.93;2.13;;;14.00;99.90;;;;;;5079928;28;20102;-74
2022/05/08 09:45:57;;;;;;;7.47;2.13;;;14.00;99.90;;;;;;5089246;28;20053;-74
2022/05/08 09:48:27;;;;;;;6.60;1.70;;;14.10;99.90;;;;;;5078205;28;20052;-76
2022/05/08 09:50:58;;;;;;;6.40;1.85;;;14.20;99.90;;;;;;5039296;28;20060;-78
2022/05/08 09:53:25;;;;;;;8.07;1.80;;;14.30;99.90;;;;;;5057924;28;20525;-77
2022/05/08 09:55:55;;;;;;;4.68;1.77;;;14.30;99.90;;;;;;5079836;28;20109;-78
2022/05/08 09:58:22;;;;;;;5.00;1.50;;;14.30;99.90;;;;;;5085548;28;20416;-76
2022/05/08 10:00:48;;;;;;;6.85;1.50;;;14.40;99.90;;;;;;5077847;28;20104;-76
2022/05/08 10:03:15;;;;;;;7.60;1.90;;;14.60;99.90;;;;;;5078506;28;20111;-76
2022/05/08 10:05:44;;;;;;;6.78;1.50;;;14.70;99.90;;;;;;5068619;28;20119;-76
2022/05/08 10:08:13;;;;;;;4.55;1.42;;;14.80;99.90;;;;;;5089617;28;20056;-74
2022/05/08 10:13:53;;;;;;;5.72;1.40;;;15.00;99.90;;;;;;5096171;28;20111;-77
2022/05/08 10:16:47;;;;;;;5.28;1.80;;;14.90;99.90;;;;;;5067892;28;20049;-76
2022/05/08 10:19:24;;;;;;;5.45;1.60;;;14.80;99.90;;;;;;5079245;28;20071;-76
2022/05/08 10:22:06;;;;;;;2.83;1.52;;;14.90;99.90;;;;;;5062877;28;20063;-76
2022/05/08 10:24:39;;;;;;;6.53;1.70;;;15.10;99.90;;;;;;5080999;28;20049;-75
2022/05/08 10:27:16;;;;;;;5.72;1.75;;;15.20;99.90;;;;;;5080603;28;20037;-80
2022/05/08 10:29:48;;;;;;;6.63;1.70;;;15.20;99.90;;;;;;5080431;28;20080;-76
2022/05/08 10:32:34;;;;;;;4.10;1.50;;;15.20;99.90;;;;;;5088252;28;20043;-78
2022/05/08 10:35:10;;;;;;;6.90;1.92;;;15.10;99.90;;;;;;5088868;28;20060;-79
2022/05/08 10:37:41;;;;;;;3.72;1.88;;;15.00;99.90;;;;;;5088950;28;20041;-75
2022/05/08 10:40:31;;;;;;;7.85;1.70;;;14.90;99.90;;;;;;5058491;28;20056;-81
2022/05/08 10:42:58;;;;;;;4.78;1.58;;;15.10;99.90;;;;;;5083102;28;20129;-75
2022/05/08 10:45:30;;;;;;;4.32;1.80;;;15.10;99.90;;;;;;5090623;28;20082;-78
2022/05/08 10:47:57;;;;;;;6.43;1.88;;;15.00;99.90;;;;;;5093130;28;20036;-80
2022/05/08 10:50:23;;;;;;;5.53;1.85;;;14.90;99.90;;;;;;5085623;28;20059;-77
2022/05/08 10:52:50;;;;;;;6.07;1.60;;;14.90;99.90;;;;;;5063110;28;20104;-75
2022/05/08 10:55:20;;;;;;;4.63;1.52;;;15.00;99.90;;;;;;5077585;28;20056;-77
2022/05/08 10:57:47;;;;;;;6.22;1.42;;;15.20;99.90;;;;;;5088690;28;20040;-74
2022/05/08 11:00:24;;;;;;;3.95;1.50;;;15.40;99.90;;;;;;5087910;28;20123;-74
2022/05/08 11:02:52;;;;;;;5.65;1.73;;;15.50;99.90;;;;;;5090065;28;20040;-74
2022/05/08 11:05:25;;;;;;;5.30;2.15;;;15.40;99.90;;;;;;5090886;28;20074;-75
2022/05/08 11:07:56;;;;;;;4.13;1.65;;;15.20;99.90;;;;;;5078622;28;20112;-77
2022/05/08 11:10:29;;;;;;;7.22;2.03;;;15.20;99.90;;;;;;5087368;28;20040;-75
2022/05/08 11:13:11;;;;;;;6.82;2.03;;;15.10;99.90;;;;;;5092813;28;20060;-75
2022/05/08 11:15:45;;;;;;;6.95;2.80;;;15.00;99.90;;;;;;5043706;28;20090;-76
2022/05/08 11:18:12;;;;;;;5.15;1.58;;;15.20;99.90;;;;;;5077373;28;20044;-76
2022/05/08 11:20:43;;;;;;;3.58;1.45;;;15.40;99.90;;;;;;5064678;28;20056;-77
2022/05/08 11:23:14;;;;;;;4.30;1.65;;;15.50;99.90;;;;;;5067317;28;20048;-77
2022/05/08 11:25:40;;;;;;;5.95;1.40;;;15.70;99.90;;;;;;5078688;28;20054;-77
2022/05/08 11:28:16;;;;;;;6.20;1.73;;;15.60;99.90;;;;;;5090832;28;20074;-76
2022/05/08 11:30:43;;;;;;;6.22;1.73;;;15.50;99.90;;;;;;5063071;28;20074;-76
2022/05/08 11:36:04;;;;;;;5.28;1.60;;;15.50;99.90;;;;;;5077199;28;20037;-76
2022/05/08 11:38:45;;;;;;;6.32;1.77;;;15.50;99.90;;;;;;5077888;28;20456;-78
2022/05/08 11:41:16;;;;;;;4.82;1.63;;;15.50;99.90;;;;;;5066756;28;20037;-75
2022/05/08 11:43:43;;;;;;;5.05;1.63;;;15.60;99.90;;;;;;5071141;28;20070;-77
2022/05/08 11:46:15;;;;;;;6.20;1.60;;;15.60;99.90;;;;;;5063624;28;20108;-81
2022/05/08 11:48:46;;;;;;;9.20;1.88;;;15.60;99.90;;;;;;5078528;28;20122;-80
2022/05/08 11:51:13;;;;;;;6.72;1.67;;;15.60;99.90;;;;;;5061119;28;20044;-81
2022/05/08 11:53:43;;;;;;;8.38;1.85;;;15.70;99.90;;;;;;5076186;28;20522;-77
2022/05/08 11:56:29;;;;;;;4.35;1.77;;;15.70;99.90;;;;;;5077360;28;20048;-80
2022/05/08 11:58:57;;;;;;;7.35;1.80;;;15.80;99.90;;;;;;5072144;28;20071;-80
2022/05/08 12:01:29;;;;;;;5.25;1.70;;;15.80;99.90;;;;;;5069366;28;20103;-81
2022/05/08 12:03:57;;;;;;;5.38;1.80;;;15.90;99.90;;;;;;5078127;28;20044;-74
2022/05/08 12:06:24;;;;;;;5.38;1.55;;;16.00;99.90;;;;;;5060204;28;20066;-76
2022/05/08 12:08:50;;;;;;;7.93;1.98;;;16.00;99.90;;;;;;5079151;28;20063;-76
2022/05/08 12:11:26;;;;;;;5.35;2.00;;;16.10;99.90;;;;;;5068009;28;20071;-76
2022/05/08 12:14:03;;;;;;;5.10;1.55;;;16.10;99.90;;;;;;5047174;28;20151;-76
2022/05/08 12:16:29;;;;;;;6.68;1.88;;;16.10;99.90;;;;;;5076322;28;20048;-76
2022/05/08 12:19:27;;;;;;;6.47;1.83;;;16.00;99.90;;;;;;5059122;28;20062;-76
2022/05/08 12:21:54;;;;;;;7.00;2.03;;;16.00;99.90;;;;;;5045480;28;20080;-76
2022/05/08 12:24:21;;;;;;;8.40;2.10;;;15.90;99.90;;;;;;5074335;28;20102;-74
2022/05/08 12:26:48;;;;;;;7.18;1.77;;;16.00;99.90;;;;;;5048776;28;20048;-75
2022/05/08 12:29:19;;;;;;;6.75;1.98;;;16.10;99.90;;;;;;5053854;28;20505;-75
2022/05/08 12:31:45;;;;;;;6.35;1.60;;;16.10;99.90;;;;;;5081493;28;20125;-74
2022/05/08 12:34:12;;;;;;;7.68;2.00;;;16.00;99.90;;;;;;5079749;28;20142;-74
2022/05/08 12:36:40;;;;;;;8.05;1.90;;;16.20;99.90;;;;;;5055622;28;20163;-79
2022/05/08 12:39:07;;;;;;;4.63;1.40;;;16.20;99.90;;;;;;5065903;28;20123;-77
2022/05/08 12:41:33;;;;;;;7.45;2.00;;;16.20;99.90;;;;;;5064159;28;20087;-76
2022/05/08 12:44:03;;;;;;;4.22;1.80;;;16.20;99.90;;;;;;5072485;28;20074;-77
2022/05/08 12:46:28;;;;;;;6.95;1.70;;;16.20;99.90;;;;;;5057457;28;20123;-77
2022/05/08 12:49:01;;;;;;;7.05;1.70;;;16.20;99.90;;;;;;5074319;28;20082;-77
2022/05/08 12:51:27;;;;;;;6.55;1.75;;;16.10;99.90;;;;;;5075270;28;20048;-76
2022/05/08 12:53:53;;;;;;;6.60;1.98;;;16.20;99.90;;;;;;5073464;28;20103;-75
2022/05/08 12:56:19;;;;;;;7.90;1.80;;;16.30;99.90;;;;;;5075016;28;20482;-75
2022/05/08 13:01:29;;;;;;;5.13;1.70;;;16.60;99.90;;;;;;5076433;28;20044;-75
2022/05/08 13:03:55;;;;;;;9.07;2.10;;;16.70;99.90;;;;;;5070513;28;20081;-78
2022/05/08 13:06:21;;;;;;;7.70;2.10;;;16.80;99.90;;;;;;5055383;28;20413;-76
2022/05/08 13:08:46;;;;;;;3.40;1.40;;;16.70;99.90;;;;;;5040711;28;20087;-75
2022/05/08 13:11:12;;;;;;;8.40;1.98;;;16.70;99.90;;;;;;5038685;28;20478;-74
2022/05/08 13:13:38;;;;;;;8.65;1.73;;;16.80;99.90;;;;;;5023510;28;20045;-76
2022/05/08 13:16:05;;;;;;;5.40;1.70;;;16.90;99.90;;;;;;5022356;28;20060;-76
2022/05/08 13:18:31;;;;;;;8.15;1.95;;;17.00;99.90;;;;;;5056250;28;20045;-76
2022/05/08 13:20:56;;;;;;;7.35;1.70;;;17.10;99.90;;;;;;5056808;28;20095;-75
2022/05/08 13:23:22;;;;;;;6.00;1.60;;;17.20;99.90;;;;;;5059028;28;20040;-74